createdAt,value
2023-04-10T00:00:14.475Z,8.06
2023-04-10T00:02:42.798Z,8.01
2023-04-10T00:05:10.399Z,8.48
2023-04-10T00:07:37.618Z,8.53
2023-04-10T00:10:04.808Z,7.96
2023-04-10T00:12:31.897Z,8.33
2023-04-10T00:14:59.326Z,7.93
2023-04-10T00:17:26.311Z,8.13
2023-04-10T00:19:53.166Z,8.49
2023-04-10T00:22:47.481Z,8.43
2023-04-10T00:25:27.931Z,8.37
2023-04-10T00:27:54.890Z,8.35
2023-04-10T00:30:21.938Z,8.12
2023-04-10T00:32:49.241Z,8.19
2023-04-10T00:35:16.330Z,7.45
2023-04-10T00:37:43.220Z,7.78
2023-04-10T00:40:10.842Z,8.07
2023-04-10T00:42:37.786Z,7.52
2023-04-10T00:45:05.079Z,8.06
2023-04-10T00:47:32.711Z,7.51
2023-04-10T00:50:13.361Z,7.80
2023-04-10T00:53:14.351Z,7.94
2023-04-10T00:55:42.393Z,8.04
2023-04-10T00:58:13.682Z,8.02
2023-04-10T01:00:43.895Z,7.74
2023-04-10T01:03:13.377Z,7.81
2023-04-10T01:06:10.457Z,8.07
2023-04-10T01:09:16.388Z,7.55
2023-04-10T01:12:12.825Z,7.90
2023-04-10T01:14:58.545Z,8.06
2023-04-10T01:17:34.399Z,8.04
2023-04-10T01:20:26.417Z,7.87
2023-04-10T01:23:21.394Z,7.89
2023-04-10T01:25:57.375Z,7.36
2023-04-10T01:29:06.243Z,7.89
2023-04-10T01:31:39.082Z,7.94
2023-04-10T01:34:09.676Z,7.91
2023-04-10T01:36:47.586Z,7.90
2023-04-10T01:39:18.296Z,7.74
2023-04-10T01:41:47.118Z,7.21
2023-04-10T01:44:16.143Z,7.86
2023-04-10T01:46:44.814Z,7.31
2023-04-10T01:49:13.394Z,7.70
2023-04-10T01:51:58.386Z,7.73
2023-04-10T01:54:39.267Z,7.83
2023-04-10T01:57:06.636Z,7.52
2023-04-10T01:59:41.420Z,7.63
2023-04-10T02:02:11.888Z,7.62
2023-04-10T02:04:39.570Z,7.94
2023-04-10T02:07:09.093Z,8.17
2023-04-10T02:09:48.925Z,8.08
2023-04-10T02:12:26.760Z,7.78
2023-04-10T02:15:01.500Z,7.80
2023-04-10T02:17:31.606Z,7.64
2023-04-10T02:20:13.449Z,7.89
2023-04-10T02:23:14.444Z,7.53
2023-04-10T02:26:21.438Z,7.81
2023-04-10T02:28:55.943Z,7.28
2023-04-10T02:31:24.690Z,7.99
2023-04-10T02:33:52.112Z,7.62
2023-04-10T02:36:19.340Z,7.14
2023-04-10T02:38:46.399Z,7.53
2023-04-10T02:41:13.781Z,7.37
2023-04-10T02:43:41.844Z,7.23
2023-04-10T02:46:08.785Z,7.73
2023-04-10T02:48:39.219Z,6.97
2023-04-10T02:51:26.408Z,7.74
2023-04-10T02:54:07.037Z,7.78
2023-04-10T02:56:35.249Z,7.71
2023-04-10T02:59:02.664Z,6.94
2023-04-10T03:01:31.219Z,7.76
2023-04-10T03:03:59.382Z,7.48
2023-04-10T03:06:30.711Z,7.72
2023-04-10T03:08:58.423Z,6.73
2023-04-10T03:11:27.232Z,7.21
2023-04-10T03:13:54.475Z,7.16
2023-04-10T03:16:21.807Z,7.31
2023-04-10T03:18:48.933Z,7.08
2023-04-10T03:21:36.448Z,7.40
2023-04-10T03:24:17.632Z,7.42
2023-04-10T03:26:44.987Z,7.27
2023-04-10T03:29:12.482Z,7.57
2023-04-10T03:31:40.988Z,7.54
2023-04-10T03:34:08.218Z,7.27
2023-04-10T03:36:35.363Z,7.09
2023-04-10T03:39:02.344Z,6.98
2023-04-10T03:41:31.093Z,6.93
2023-04-10T03:43:58.198Z,7.22
2023-04-10T03:46:25.217Z,7.16
2023-04-10T03:48:54.209Z,6.87
2023-04-10T03:51:23.509Z,7.19
2023-04-10T03:53:51.544Z,7.14
2023-04-10T03:56:19.064Z,7.41
2023-04-10T03:58:47.141Z,6.69
2023-04-10T04:01:27.635Z,7.10
2023-04-10T04:04:26.617Z,6.67
2023-04-10T04:07:45.532Z,7.07
2023-04-10T04:10:42.985Z,6.95
2023-04-10T04:13:24.373Z,7.04
2023-04-10T04:16:05.715Z,7.06
2023-04-10T04:18:52.868Z,7.03
2023-04-10T04:21:56.473Z,6.81
2023-04-10T04:25:10.823Z,6.82
2023-04-10T04:27:58.046Z,6.71
2023-04-10T04:30:39.511Z,6.45
2023-04-10T04:33:26.701Z,6.40
2023-04-10T04:36:09.072Z,6.92
2023-04-10T04:38:55.488Z,6.68
2023-04-10T04:41:32.675Z,6.57
2023-04-10T04:44:11.797Z,6.64
2023-04-10T04:47:11.034Z,6.68
2023-04-10T04:49:56.991Z,6.87
2023-04-10T04:52:41.836Z,6.80
2023-04-10T04:55:32.602Z,6.89
2023-04-10T04:58:21.168Z,6.98
2023-04-10T05:01:28.585Z,6.98
2023-04-10T05:04:25.318Z,6.93
2023-04-10T05:07:07.872Z,6.80
2023-04-10T05:09:53.085Z,7.02
2023-04-10T05:12:55.427Z,7.40
2023-04-10T05:15:42.693Z,7.68
2023-04-10T05:18:19.922Z,8.56
2023-04-10T05:21:34.585Z,8.87
2023-04-10T05:24:57.633Z,9.59
2023-04-10T05:28:07.455Z,10.45
2023-04-10T05:31:12.478Z,10.05
2023-04-10T05:33:50.546Z,9.93
2023-04-10T05:36:37.720Z,10.40
2023-04-10T05:39:10.085Z,10.71
2023-04-10T05:42:15.567Z,10.95
2023-04-10T05:44:52.889Z,11.46
2023-04-10T05:47:36.541Z,11.12
2023-04-10T05:50:19.161Z,11.60
2023-04-10T05:53:04.497Z,10.86
2023-04-10T05:55:43.919Z,11.92
2023-04-10T05:58:38.850Z,12.52
2023-04-10T06:01:53.519Z,12.36
2023-04-10T06:04:34.290Z,12.14
2023-04-10T06:07:02.161Z,11.77
2023-04-10T06:09:32.348Z,11.48
2023-04-10T06:12:01.510Z,11.61
2023-04-10T06:14:28.714Z,10.68
2023-04-10T06:16:57.122Z,10.46
2023-04-10T06:19:24.059Z,10.78
2023-04-10T06:22:12.556Z,11.97
2023-04-10T06:24:53.141Z,11.62
2023-04-10T06:27:21.069Z,12.13
2023-04-10T06:29:47.933Z,12.75
2023-04-10T06:32:17.043Z,12.71
2023-04-10T06:34:44.781Z,12.53
2023-04-10T06:37:11.998Z,12.80
2023-04-10T06:39:39.569Z,12.45
2023-04-10T06:42:06.598Z,12.46
2023-04-10T06:44:53.458Z,12.12
2023-04-10T06:47:20.570Z,12.51
2023-04-10T06:49:47.518Z,12.02
2023-04-10T06:52:14.700Z,11.90
2023-04-10T06:54:41.608Z,11.90
2023-04-10T06:57:08.603Z,12.07
2023-04-10T06:59:55.601Z,12.81
2023-04-10T07:02:56.606Z,13.24
2023-04-10T07:05:57.561Z,14.61
2023-04-10T07:08:58.613Z,14.00
2023-04-10T07:11:35.059Z,14.83
2023-04-10T07:14:02.189Z,15.19
2023-04-10T07:16:29.568Z,15.03
2023-04-10T07:18:56.990Z,15.42
2023-04-10T07:21:44.585Z,16.27
2023-04-10T07:24:25.097Z,15.37
2023-04-10T07:26:52.273Z,16.22
2023-04-10T07:29:20.394Z,15.54
2023-04-10T07:31:47.401Z,13.88
2023-04-10T07:34:14.437Z,12.81
2023-04-10T07:36:41.370Z,13.48
2023-04-10T07:39:08.394Z,13.83
2023-04-10T07:41:35.942Z,14.59
2023-04-10T07:44:02.872Z,12.91
2023-04-10T07:46:29.863Z,14.45
2023-04-10T07:48:56.902Z,14.85
2023-04-10T07:51:23.838Z,15.63
2023-04-10T07:53:50.755Z,15.73
2023-04-10T07:56:21.520Z,13.31
2023-04-10T07:58:49.158Z,14.06
2023-04-10T08:01:36.622Z,13.88
2023-04-10T08:04:17.420Z,12.81
2023-04-10T08:06:44.413Z,14.13
2023-04-10T08:09:11.411Z,14.25
2023-04-10T08:11:38.696Z,14.14
2023-04-10T08:14:07.188Z,14.89
2023-04-10T08:16:36.442Z,14.82
2023-04-10T08:19:03.835Z,15.71
2023-04-10T08:21:50.693Z,16.15
2023-04-10T08:24:51.627Z,15.21
2023-04-10T08:27:32.264Z,14.97
2023-04-10T08:29:59.127Z,15.67
2023-04-10T08:32:26.738Z,15.46
2023-04-10T08:34:53.708Z,16.13
2023-04-10T08:37:21.575Z,16.26
2023-04-10T08:39:48.665Z,15.67
2023-04-10T08:42:15.626Z,15.40
2023-04-10T08:44:42.580Z,15.45
2023-04-10T08:47:10.768Z,15.59
2023-04-10T08:50:06.652Z,15.84
2023-04-10T08:52:51.948Z,16.59
2023-04-10T08:55:20.501Z,15.24
2023-04-10T08:57:54.283Z,14.71
2023-04-10T09:00:49.654Z,15.85
2023-04-10T09:03:31.176Z,16.35
2023-04-10T09:06:02.257Z,16.06
2023-04-10T09:08:49.653Z,15.59
2023-04-10T09:11:52.070Z,17.13
2023-04-10T09:14:23.929Z,16.90
2023-04-10T09:16:53.826Z,15.54
2023-04-10T09:19:31.367Z,16.51
2023-04-10T09:22:18.730Z,16.73
2023-04-10T09:25:00.975Z,14.77
2023-04-10T09:27:33.714Z,15.69
2023-04-10T09:30:01.953Z,16.57
2023-04-10T09:32:49.321Z,16.38
2023-04-10T09:35:16.218Z,17.51
2023-04-10T09:37:45.928Z,17.21
2023-04-10T09:40:25.956Z,16.69
2023-04-10T09:42:56.053Z,15.38
2023-04-10T09:46:00.603Z,15.80
2023-04-10T09:49:11.958Z,17.33
2023-04-10T09:51:52.282Z,16.53
2023-04-10T09:54:19.214Z,17.01
2023-04-10T09:57:07.676Z,17.11
2023-04-10T10:00:15.659Z,15.68
2023-04-10T10:03:14.926Z,16.37
2023-04-10T10:05:50.728Z,16.85
2023-04-10T10:08:17.879Z,16.09
2023-04-10T10:10:47.804Z,16.32
2023-04-10T10:13:43.795Z,16.64
2023-04-10T10:16:48.725Z,16.94
2023-04-10T10:19:39.177Z,16.26
2023-04-10T10:22:27.676Z,15.55
2023-04-10T10:25:09.630Z,16.53
2023-04-10T10:27:40.756Z,16.22
2023-04-10T10:30:25.314Z,16.40
2023-04-10T10:32:56.591Z,17.53
2023-04-10T10:35:25.990Z,17.80
2023-04-10T10:37:55.243Z,18.42
2023-04-10T10:40:27.815Z,17.98
2023-04-10T10:43:18.651Z,19.02
2023-04-10T10:45:52.578Z,18.85
2023-04-10T10:48:39.704Z,19.65
2023-04-10T10:52:02.782Z,17.78
2023-04-10T10:54:53.628Z,17.14
2023-04-10T10:58:08.786Z,18.06
2023-04-10T11:01:12.759Z,18.83
2023-04-10T11:03:53.536Z,17.85
2023-04-10T11:06:22.193Z,18.39
2023-04-10T11:09:09.700Z,17.86
2023-04-10T11:11:59.590Z,18.95
2023-04-10T11:14:27.138Z,19.59
2023-04-10T11:16:54.095Z,19.77
2023-04-10T11:19:23.564Z,20.28
2023-04-10T11:22:14.702Z,19.09
2023-04-10T11:25:00.444Z,17.22
2023-04-10T11:27:45.966Z,17.57
2023-04-10T11:30:29.237Z,18.15
2023-04-10T11:32:56.545Z,18.40
2023-04-10T11:35:23.719Z,17.92
2023-04-10T11:37:51.797Z,18.16
2023-04-10T11:40:18.784Z,18.23
2023-04-10T11:42:45.701Z,18.61
2023-04-10T11:45:39.778Z,19.57
2023-04-10T11:48:20.533Z,19.47
2023-04-10T11:50:47.421Z,19.04
2023-04-10T11:53:19.882Z,18.84
2023-04-10T11:55:47.229Z,18.81
2023-04-10T11:58:38.762Z,19.38
2023-04-10T12:01:42.509Z,18.05
2023-04-10T12:04:43.917Z,17.35
2023-04-10T12:07:27.487Z,17.00
2023-04-10T12:09:58.319Z,16.90
2023-04-10T12:12:36.932Z,17.07
2023-04-10T12:15:04.504Z,15.39
2023-04-10T12:17:32.293Z,16.45
2023-04-10T12:20:19.765Z,16.25
2023-04-10T12:23:08.542Z,17.50
2023-04-10T12:25:35.693Z,17.64
2023-04-10T12:28:02.612Z,18.11
2023-04-10T12:30:29.540Z,18.21
2023-04-10T12:32:57.653Z,18.06
2023-04-10T12:35:42.665Z,18.65
2023-04-10T12:38:09.612Z,18.87
2023-04-10T12:40:38.510Z,18.90
2023-04-10T12:43:05.506Z,19.09
2023-04-10T12:45:43.630Z,19.41
2023-04-10T12:48:10.723Z,19.20
2023-04-10T12:50:47.990Z,19.08
2023-04-10T12:53:15.194Z,18.70
2023-04-10T12:55:43.179Z,17.96
2023-04-10T12:58:34.868Z,17.75
2023-04-10T13:01:35.846Z,17.27
2023-04-10T13:04:16.837Z,16.65
2023-04-10T13:06:44.680Z,17.11
2023-04-10T13:09:31.757Z,17.72
2023-04-10T13:12:25.764Z,16.62
2023-04-10T13:15:07.906Z,17.58
2023-04-10T13:17:35.842Z,17.32
2023-04-10T13:20:25.767Z,17.49
2023-04-10T13:23:26.835Z,18.02
2023-04-10T13:26:07.385Z,18.42
2023-04-10T13:28:54.906Z,18.21
2023-04-10T13:31:56.009Z,18.04
2023-04-10T13:34:55.358Z,17.10
2023-04-10T13:37:22.255Z,17.39
2023-04-10T13:39:49.127Z,17.64
2023-04-10T13:42:16.021Z,18.01
2023-04-10T13:44:43.032Z,17.90
2023-04-10T13:47:10.044Z,17.79
2023-04-10T13:49:37.021Z,18.11
2023-04-10T13:52:04.012Z,18.23
2023-04-10T13:54:30.909Z,17.72
2023-04-10T13:57:17.833Z,18.00
2023-04-10T14:00:19.809Z,17.49
2023-04-10T14:03:20.855Z,17.17
2023-04-10T14:06:01.497Z,17.70
2023-04-10T14:08:48.858Z,17.00
2023-04-10T14:11:29.411Z,16.70
2023-04-10T14:13:56.412Z,17.04
2023-04-10T14:16:23.399Z,16.56
2023-04-10T14:18:50.356Z,16.84
2023-04-10T14:21:37.829Z,17.10
2023-04-10T14:24:38.826Z,17.19
2023-04-10T14:27:19.568Z,17.23
2023-04-10T14:30:06.884Z,17.83
2023-04-10T14:32:47.579Z,18.01
2023-04-10T14:35:14.494Z,17.79
2023-04-10T14:37:41.408Z,18.33
2023-04-10T14:40:08.958Z,18.46
2023-04-10T14:42:36.216Z,18.18
2023-04-10T14:45:03.213Z,18.43
2023-04-10T14:47:30.196Z,18.17
2023-04-10T14:49:57.099Z,18.27
2023-04-10T14:52:24.229Z,18.39
2023-04-10T14:54:51.075Z,18.78
2023-04-10T14:57:18.060Z,19.07
2023-04-10T15:00:04.930Z,19.47
2023-04-10T15:02:45.855Z,18.32
2023-04-10T15:05:13.252Z,18.20
2023-04-10T15:07:40.173Z,17.13
2023-04-10T15:10:07.715Z,17.78
2023-04-10T15:12:34.655Z,17.81
2023-04-10T15:15:01.759Z,17.97
2023-04-10T15:17:29.872Z,18.13
2023-04-10T15:20:16.880Z,17.90
2023-04-10T15:23:11.695Z,18.04
2023-04-10T15:25:58.867Z,17.01
2023-04-10T15:28:59.879Z,16.47
2023-04-10T15:32:00.873Z,16.88
2023-04-10T15:34:41.551Z,17.36
2023-04-10T15:37:08.478Z,17.08
2023-04-10T15:39:37.294Z,16.97
2023-04-10T15:42:06.117Z,17.47
2023-04-10T15:44:33.134Z,17.37
2023-04-10T15:47:00.194Z,17.95
2023-04-10T15:49:37.155Z,18.11
2023-04-10T15:52:06.742Z,18.09
2023-04-10T15:54:39.186Z,17.86
2023-04-10T15:57:06.203Z,18.54
2023-04-10T15:59:52.897Z,18.31
2023-04-10T16:02:33.718Z,18.23
2023-04-10T16:05:01.144Z,18.31
2023-04-10T16:07:28.138Z,18.59
2023-04-10T16:10:15.939Z,18.58
2023-04-10T16:12:56.726Z,18.28
2023-04-10T16:15:23.721Z,18.15
2023-04-10T16:17:50.759Z,18.06
2023-04-10T16:20:37.917Z,18.00
2023-04-10T16:23:38.878Z,17.95
2023-04-10T16:26:33.003Z,17.72
2023-04-10T16:29:26.902Z,17.64
2023-04-10T16:32:07.615Z,17.77
2023-04-10T16:34:54.987Z,17.75
2023-04-10T16:37:55.920Z,17.47
2023-04-10T16:40:36.462Z,17.22
2023-04-10T16:43:03.533Z,17.34
2023-04-10T16:45:30.616Z,16.64
2023-04-10T16:47:57.654Z,16.83
2023-04-10T16:50:24.700Z,17.23
2023-04-10T16:52:51.722Z,16.97
2023-04-10T16:55:18.814Z,16.85
2023-04-10T16:58:05.966Z,16.70
2023-04-10T17:01:06.995Z,16.96
2023-04-10T17:03:48.571Z,16.80
2023-04-10T17:06:16.319Z,16.83
2023-04-10T17:08:43.877Z,16.78
2023-04-10T17:11:12.710Z,16.81
2023-04-10T17:13:42.927Z,16.77
2023-04-10T17:16:10.266Z,16.35
2023-04-10T17:18:37.370Z,16.56
2023-04-10T17:21:27.915Z,16.33
2023-04-10T17:24:08.480Z,16.42
2023-04-10T17:26:35.597Z,15.88
2023-04-10T17:29:02.507Z,16.38
2023-04-10T17:31:29.509Z,16.08
2023-04-10T17:33:56.442Z,16.11
2023-04-10T17:36:23.437Z,15.53
2023-04-10T17:38:53.664Z,15.83
2023-04-10T17:41:21.089Z,15.69
2023-04-10T17:43:48.603Z,15.62
2023-04-10T17:46:15.795Z,15.78
2023-04-10T17:48:44.125Z,15.16
2023-04-10T17:51:11.651Z,15.59
2023-04-10T17:53:38.541Z,15.67
2023-04-10T17:56:05.907Z,15.59
2023-04-10T17:58:53.107Z,15.36
2023-04-10T18:01:54.036Z,15.41
2023-04-10T18:04:54.947Z,15.01
2023-04-10T18:07:35.494Z,14.90
2023-04-10T18:10:23.982Z,15.11
2023-04-10T18:13:04.660Z,14.87
2023-04-10T18:15:32.073Z,14.97
2023-04-10T18:17:59.095Z,14.62
2023-04-10T18:20:45.976Z,14.58
2023-04-10T18:23:40.357Z,14.50
2023-04-10T18:26:29.399Z,14.53
2023-04-10T18:28:56.617Z,13.64
2023-04-10T18:31:23.757Z,14.18
2023-04-10T18:34:03.748Z,14.16
2023-04-10T18:36:34.564Z,13.75
2023-04-10T18:39:01.684Z,14.01
2023-04-10T18:41:28.722Z,14.02
2023-04-10T18:44:04.022Z,13.89
2023-04-10T18:46:32.681Z,13.17
2023-04-10T18:49:01.294Z,13.75
2023-04-10T18:51:28.688Z,13.63
2023-04-10T18:53:55.976Z,14.06
2023-04-10T18:56:23.126Z,13.96
2023-04-10T18:59:10.006Z,13.84
2023-04-10T19:01:50.934Z,13.46
2023-04-10T19:04:18.080Z,13.53
2023-04-10T19:06:46.341Z,13.95
2023-04-10T19:09:13.976Z,13.85
2023-04-10T19:11:41.221Z,13.95
2023-04-10T19:14:08.369Z,13.23
2023-04-10T19:16:35.576Z,13.33
2023-04-10T19:19:02.856Z,13.05
2023-04-10T19:21:50.042Z,13.08
2023-04-10T19:24:50.999Z,13.10
2023-04-10T19:27:31.557Z,13.09
2023-04-10T19:29:58.555Z,13.26
2023-04-10T19:32:25.608Z,13.38
2023-04-10T19:34:53.457Z,12.77
2023-04-10T19:37:40.061Z,12.64
2023-04-10T19:40:20.593Z,12.78
2023-04-10T19:42:47.700Z,12.97
2023-04-10T19:45:15.511Z,12.94
2023-04-10T19:47:42.488Z,12.73
2023-04-10T19:50:09.756Z,12.63
2023-04-10T19:52:36.644Z,12.71
2023-04-10T19:55:03.825Z,12.79
2023-04-10T19:57:51.050Z,12.59
2023-04-10T20:00:38.808Z,12.45
2023-04-10T20:03:05.751Z,12.58
2023-04-10T20:05:53.045Z,12.54
2023-04-10T20:08:35.786Z,12.09
2023-04-10T20:11:06.418Z,12.40
2023-04-10T20:13:34.783Z,12.44
2023-04-10T20:16:02.447Z,12.27
2023-04-10T20:18:31.517Z,12.03
2023-04-10T20:21:19.071Z,12.12
2023-04-10T20:23:59.901Z,12.32
2023-04-10T20:26:26.876Z,12.20
2023-04-10T20:28:54.672Z,12.19
2023-04-10T20:31:21.820Z,11.77
2023-04-10T20:33:48.741Z,12.26
2023-04-10T20:36:15.823Z,12.04
2023-04-10T20:38:42.776Z,11.74
2023-04-10T20:41:09.722Z,11.56
2023-04-10T20:43:36.686Z,12.49
2023-04-10T20:46:08.204Z,12.31
2023-04-10T20:48:38.526Z,11.62
2023-04-10T20:51:06.084Z,11.88
2023-04-10T20:53:33.834Z,12.52
2023-04-10T20:56:00.843Z,12.25
2023-04-10T20:58:48.073Z,12.23
2023-04-10T21:01:49.189Z,12.43
2023-04-10T21:04:29.865Z,11.62
2023-04-10T21:07:17.068Z,12.08
2023-04-10T21:09:57.785Z,11.95
2023-04-10T21:12:24.690Z,12.24
2023-04-10T21:14:51.684Z,11.76
2023-04-10T21:17:19.603Z,12.44
2023-04-10T21:19:46.597Z,11.96
2023-04-10T21:22:35.117Z,12.19
2023-04-10T21:25:15.719Z,12.83
2023-04-10T21:27:42.743Z,12.00
2023-04-10T21:30:09.898Z,12.51
2023-04-10T21:32:37.110Z,12.34
2023-04-10T21:35:04.212Z,12.44
2023-04-10T21:37:51.161Z,12.16
2023-04-10T21:40:52.113Z,12.36
2023-04-10T21:43:33.228Z,12.12
2023-04-10T21:46:02.655Z,12.23
2023-04-10T21:48:30.039Z,12.58
2023-04-10T21:50:56.894Z,12.22
2023-04-10T21:53:44.105Z,12.77
2023-04-10T21:56:24.675Z,12.61
2023-04-10T21:58:53.050Z,12.06
2023-04-10T22:01:20.247Z,12.38
2023-04-10T22:03:47.327Z,12.53
2023-04-10T22:06:14.550Z,11.68
2023-04-10T22:08:41.518Z,11.86
2023-04-10T22:11:08.631Z,11.81
2023-04-10T22:13:35.507Z,12.29
2023-04-10T22:16:02.689Z,12.19
2023-04-10T22:18:29.731Z,11.90
2023-04-10T22:21:17.108Z,12.14
2023-04-10T22:24:18.264Z,12.00
2023-04-10T22:26:59.045Z,11.84
2023-04-10T22:29:26.120Z,12.37
2023-04-10T22:31:53.213Z,11.90
2023-04-10T22:34:20.151Z,11.30
2023-04-10T22:37:07.132Z,11.03
2023-04-10T22:39:47.778Z,11.56
2023-04-10T22:42:14.817Z,11.41
2023-04-10T22:44:41.809Z,11.63
2023-04-10T22:47:29.113Z,11.66
2023-04-10T22:50:16.617Z,11.96
2023-04-10T22:53:03.158Z,11.49
2023-04-10T22:55:43.704Z,11.68
2023-04-10T22:58:10.831Z,11.47
2023-04-10T23:00:37.920Z,12.08
2023-04-10T23:03:04.982Z,12.07
2023-04-10T23:05:52.259Z,12.05
2023-04-10T23:08:32.954Z,12.09
2023-04-10T23:10:59.853Z,11.74
2023-04-10T23:13:26.847Z,11.65
2023-04-10T23:15:55.382Z,11.89
2023-04-10T23:18:22.997Z,12.33
2023-04-10T23:21:10.155Z,11.95
2023-04-10T23:23:50.681Z,12.03
2023-04-10T23:26:17.549Z,11.62
2023-04-10T23:28:44.431Z,11.55
2023-04-10T23:31:11.310Z,11.60
2023-04-10T23:33:38.365Z,11.74
2023-04-10T23:36:06.509Z,11.78
2023-04-10T23:38:53.595Z,11.73
2023-04-10T23:41:54.170Z,11.47
2023-04-10T23:44:34.693Z,11.61
2023-04-10T23:47:01.734Z,11.13
2023-04-10T23:49:28.927Z,11.42
2023-04-10T23:52:16.153Z,11.41
2023-04-10T23:54:56.854Z,11.40
2023-04-10T23:57:24.066Z,11.03
2023-04-10T23:59:51.839Z,11.28
